createdAt,value
2023-04-08T00:00:08.691Z,101785.75
2023-04-08T00:01:02.217Z,101787.63
2023-04-08T00:01:54.112Z,101789.31
2023-04-08T00:02:45.884Z,101781.47
2023-04-08T00:03:37.887Z,101786.72
2023-04-08T00:04:31.769Z,101782.34
2023-04-08T00:05:23.274Z,101784.91
2023-04-08T00:06:14.699Z,101783.16
2023-04-08T00:07:06.304Z,101788.44
2023-04-08T00:07:57.738Z,101784.91
2023-04-08T00:08:49.516Z,101788.31
2023-04-08T00:09:41.369Z,101792.53
2023-04-08T00:10:33.602Z,101793.50
2023-04-08T00:11:25.204Z,101790.00
2023-04-08T00:12:16.675Z,101796.00
2023-04-08T00:13:08.084Z,101789.94
2023-04-08T00:14:00.193Z,101793.34
2023-04-08T00:14:52.323Z,101793.25
2023-04-08T00:15:46.239Z,101789.84
2023-04-08T00:16:37.651Z,101792.53
2023-04-08T00:17:29.222Z,101790.75
2023-04-08T00:18:20.832Z,101795.13
2023-04-08T00:19:12.413Z,101793.25
2023-04-08T00:20:04.812Z,101791.47
2023-04-08T00:20:57.301Z,101789.78
2023-04-08T00:21:48.862Z,101798.38
2023-04-08T00:22:40.294Z,101797.50
2023-04-08T00:23:31.721Z,101792.28
2023-04-08T00:24:25.573Z,101797.56
2023-04-08T00:25:19.582Z,101798.38
2023-04-08T00:26:11.134Z,101791.47
2023-04-08T00:27:05.604Z,101792.44
2023-04-08T00:28:00.299Z,101788.97
2023-04-08T00:28:53.609Z,101796.75
2023-04-08T00:29:45.144Z,101789.78
2023-04-08T00:30:37.057Z,101795.72
2023-04-08T00:31:31.360Z,101799.22
2023-04-08T00:32:23.854Z,101788.84
2023-04-08T00:33:17.523Z,101793.06
2023-04-08T00:34:09.058Z,101799.22
2023-04-08T00:35:00.519Z,101799.22
2023-04-08T00:35:52.748Z,101791.47
2023-04-08T00:36:45.562Z,101799.25
2023-04-08T00:37:37.438Z,101790.53
2023-04-08T00:38:28.900Z,101802.75
2023-04-08T00:39:20.300Z,101801.84
2023-04-08T00:40:12.603Z,101794.16
2023-04-08T00:41:04.068Z,101797.78
2023-04-08T00:41:56.410Z,101794.31
2023-04-08T00:42:48.413Z,101796.09
2023-04-08T00:43:40.102Z,101794.31
2023-04-08T00:44:32.440Z,101792.59
2023-04-08T00:45:23.959Z,101794.44
2023-04-08T00:46:16.124Z,101797.03
2023-04-08T00:47:10.035Z,101792.69
2023-04-08T00:48:03.596Z,101797.88
2023-04-08T00:48:55.971Z,101801.41
2023-04-08T00:49:47.467Z,101792.81
2023-04-08T00:50:38.858Z,101798.06
2023-04-08T00:51:36.282Z,101792.06
2023-04-08T00:52:27.896Z,101794.66
2023-04-08T00:53:19.836Z,101796.50
2023-04-08T00:54:14.438Z,101795.63
2023-04-08T00:55:08.815Z,101792.88
2023-04-08T00:56:01.265Z,101799.03
2023-04-08T00:56:53.015Z,101799.84
2023-04-08T00:57:45.571Z,101798.16
2023-04-08T00:58:38.996Z,101795.69
2023-04-08T00:59:34.319Z,101793.97
2023-04-08T01:00:29.494Z,101793.97
2023-04-08T01:01:47.864Z,101801.75
2023-04-08T01:03:01.137Z,101799.94
2023-04-08T01:04:22.269Z,101799.03
2023-04-08T01:05:41.993Z,101793.78
2023-04-08T01:07:12.210Z,101799.03
2023-04-08T01:08:10.125Z,101801.31
2023-04-08T01:09:05.941Z,101796.97
2023-04-08T01:10:15.795Z,101811.66
2023-04-08T01:11:13.754Z,101801.28
2023-04-08T01:12:09.449Z,101809.78
2023-04-08T01:13:12.174Z,101807.19
2023-04-08T01:14:10.126Z,101808.91
2023-04-08T01:15:08.173Z,101799.56
2023-04-08T01:15:59.856Z,101797.72
2023-04-08T01:16:56.868Z,101802.09
2023-04-08T01:17:53.702Z,101801.84
2023-04-08T01:18:48.985Z,101804.31
2023-04-08T01:19:44.705Z,101803.44
2023-04-08T01:20:38.715Z,101809.50
2023-04-08T01:21:30.670Z,101802.75
2023-04-08T01:22:32.821Z,101803.56
2023-04-08T01:23:53.114Z,101801.81
2023-04-08T01:24:47.347Z,101809.72
2023-04-08T01:25:39.749Z,101805.34
2023-04-08T01:26:32.459Z,101802.66
2023-04-08T01:27:24.766Z,101805.28
2023-04-08T01:28:26.699Z,101805.28
2023-04-08T01:29:19.653Z,101806.16
2023-04-08T01:30:13.718Z,101809.72
2023-04-08T01:31:07.473Z,101812.38
2023-04-08T01:32:01.881Z,101810.59
2023-04-08T01:32:56.126Z,101809.63
2023-04-08T01:33:50.688Z,101809.63
2023-04-08T01:34:44.867Z,101809.59
2023-04-08T01:35:37.605Z,101807.00
2023-04-08T01:36:32.698Z,101812.09
2023-04-08T01:37:28.275Z,101807.72
2023-04-08T01:38:21.164Z,101812.09
2023-04-08T01:39:17.362Z,101806.03
2023-04-08T01:40:18.474Z,101807.66
2023-04-08T01:41:11.496Z,101802.47
2023-04-08T01:42:03.852Z,101810.16
2023-04-08T01:43:00.967Z,101807.56
2023-04-08T01:43:54.574Z,101804.88
2023-04-08T01:44:47.842Z,101813.47
2023-04-08T01:45:43.883Z,101807.41
2023-04-08T01:46:36.345Z,101808.25
2023-04-08T01:47:29.971Z,101813.34
2023-04-08T01:48:23.632Z,101802.91
2023-04-08T01:49:17.510Z,101809.72
2023-04-08T01:50:10.732Z,101815.72
2023-04-08T01:51:05.469Z,101810.44
2023-04-08T01:52:00.317Z,101816.38
2023-04-08T01:52:54.364Z,101812.03
2023-04-08T01:53:46.340Z,101810.97
2023-04-08T01:54:38.131Z,101815.28
2023-04-08T01:55:31.991Z,101816.09
2023-04-08T01:56:29.047Z,101816.09
2023-04-08T01:57:27.315Z,101810.91
2023-04-08T01:58:22.510Z,101814.38
2023-04-08T01:59:16.983Z,101812.44
2023-04-08T02:00:12.310Z,101812.19
2023-04-08T02:01:27.015Z,101818.97
2023-04-08T02:02:22.609Z,101815.31
2023-04-08T02:03:18.803Z,101815.09
2023-04-08T02:04:12.854Z,101818.41
2023-04-08T02:05:04.850Z,101816.56
2023-04-08T02:05:56.366Z,101813.06
2023-04-08T02:06:48.449Z,101813.16
2023-04-08T02:07:40.380Z,101820.03
2023-04-08T02:08:36.939Z,101819.97
2023-04-08T02:09:28.527Z,101824.25
2023-04-08T02:10:20.256Z,101822.56
2023-04-08T02:11:12.594Z,101823.53
2023-04-08T02:12:04.616Z,101820.94
2023-04-08T02:12:57.043Z,101820.03
2023-04-08T02:13:49.220Z,101820.03
2023-04-08T02:14:41.001Z,101825.22
2023-04-08T02:15:42.009Z,101819.88
2023-04-08T02:16:50.105Z,101822.31
2023-04-08T02:17:43.906Z,101824.91
2023-04-08T02:18:42.826Z,101818.00
2023-04-08T02:19:46.835Z,101820.53
2023-04-08T02:20:44.296Z,101822.31
2023-04-08T02:21:47.309Z,101829.28
2023-04-08T02:22:48.741Z,101819.88
2023-04-08T02:23:42.776Z,101826.94
2023-04-08T02:24:37.307Z,101820.84
2023-04-08T02:25:30.600Z,101827.66
2023-04-08T02:26:24.528Z,101822.47
2023-04-08T02:27:17.506Z,101829.53
2023-04-08T02:28:12.538Z,101817.53
2023-04-08T02:29:05.802Z,101826.28
2023-04-08T02:29:59.900Z,101824.56
2023-04-08T02:30:53.292Z,101820.94
2023-04-08T02:31:47.026Z,101825.22
2023-04-08T02:32:40.292Z,101820.94
2023-04-08T02:33:36.681Z,101817.44
2023-04-08T02:34:30.767Z,101819.31
2023-04-08T02:35:23.731Z,101821.00
2023-04-08T02:36:16.472Z,101823.44
2023-04-08T02:37:09.181Z,101822.72
2023-04-08T02:38:03.211Z,101827.16
2023-04-08T02:38:54.922Z,101824.66
2023-04-08T02:39:47.721Z,101819.47
2023-04-08T02:40:39.315Z,101818.25
2023-04-08T02:41:31.404Z,101823.69
2023-04-08T02:42:24.986Z,101822.13
2023-04-08T02:43:19.904Z,101827.41
2023-04-08T02:44:11.379Z,101825.47
2023-04-08T02:45:06.400Z,101824.66
2023-04-08T02:46:00.397Z,101824.66
2023-04-08T02:46:51.944Z,101821.16
2023-04-08T02:47:43.416Z,101822.72
2023-04-08T02:48:34.861Z,101823.53
2023-04-08T02:49:26.527Z,101825.31
2023-04-08T02:50:18.048Z,101828.06
2023-04-08T02:51:09.584Z,101831.47
2023-04-08T02:52:01.387Z,101829.75
2023-04-08T02:52:53.099Z,101828.88
2023-04-08T02:53:44.544Z,101829.69
2023-04-08T02:54:36.216Z,101832.28
2023-04-08T02:55:30.770Z,101832.94
2023-04-08T02:56:25.597Z,101831.94
2023-04-08T02:57:17.429Z,101835.44
2023-04-08T02:58:08.965Z,101832.75
2023-04-08T02:59:00.808Z,101836.09
2023-04-08T02:59:52.285Z,101832.38
2023-04-08T03:00:44.181Z,101830.66
2023-04-08T03:01:36.165Z,101828.22
2023-04-08T03:02:27.819Z,101831.47
2023-04-08T03:03:23.186Z,101835.03
2023-04-08T03:04:14.754Z,101838.53
2023-04-08T03:05:06.685Z,101827.25
2023-04-08T03:05:58.767Z,101836.00
2023-04-08T03:06:50.183Z,101832.53
2023-04-08T03:07:41.613Z,101836.00
2023-04-08T03:08:33.632Z,101834.31
2023-04-08T03:09:28.133Z,101830.09
2023-04-08T03:10:19.863Z,101830.09
2023-04-08T03:11:11.342Z,101831.88
2023-04-08T03:12:02.811Z,101828.22
2023-04-08T03:12:56.962Z,101831.63
2023-04-08T03:13:48.383Z,101829.84
2023-04-08T03:14:39.897Z,101832.38
2023-04-08T03:15:31.335Z,101835.94
2023-04-08T03:16:22.894Z,101840.38
2023-04-08T03:17:14.351Z,101829.13
2023-04-08T03:18:06.094Z,101835.13
2023-04-08T03:18:57.594Z,101825.78
2023-04-08T03:19:49.139Z,101825.88
2023-04-08T03:20:40.634Z,101830.97
2023-04-08T03:21:32.606Z,101832.69
2023-04-08T03:22:24.581Z,101837.88
2023-04-08T03:23:16.376Z,101829.03
2023-04-08T03:24:07.866Z,101838.59
2023-04-08T03:24:59.246Z,101832.75
2023-04-08T03:25:50.734Z,101834.47
2023-04-08T03:26:44.486Z,101838.69
2023-04-08T03:27:38.419Z,101834.16
2023-04-08T03:28:30.070Z,101834.97
2023-04-08T03:29:21.538Z,101839.25
2023-04-08T03:30:13.109Z,101834.81
2023-04-08T03:31:04.931Z,101835.63
2023-04-08T03:31:56.766Z,101837.16
2023-04-08T03:32:48.303Z,101842.44
2023-04-08T03:33:39.738Z,101835.63
2023-04-08T03:34:33.700Z,101840.88
2023-04-08T03:35:25.330Z,101845.34
2023-04-08T03:36:16.799Z,101840.97
2023-04-08T03:37:12.943Z,101846.16
2023-04-08T03:38:04.852Z,101842.59
2023-04-08T03:38:56.366Z,101839.91
2023-04-08T03:39:47.869Z,101842.66
2023-04-08T03:40:43.594Z,101845.91
2023-04-08T03:41:34.976Z,101846.81
2023-04-08T03:42:27.135Z,101844.28
2023-04-08T03:43:21.873Z,101836.59
2023-04-08T03:44:13.310Z,101842.66
2023-04-08T03:45:05.543Z,101841.63
2023-04-08T03:45:56.964Z,101845.03
2023-04-08T03:46:48.411Z,101844.13
2023-04-08T03:47:41.386Z,101839.84
2023-04-08T03:48:32.972Z,101837.31
2023-04-08T03:49:24.799Z,101841.78
2023-04-08T03:50:16.278Z,101842.66
2023-04-08T03:51:09.200Z,101840.88
2023-04-08T03:52:00.766Z,101842.50
2023-04-08T03:52:52.503Z,101843.41
2023-04-08T03:53:47.141Z,101842.66
2023-04-08T03:54:38.677Z,101838.38
2023-04-08T03:55:30.168Z,101841.69
2023-04-08T03:56:21.856Z,101840.72
2023-04-08T03:57:13.453Z,101839.84
2023-04-08T03:58:05.019Z,101833.84
2023-04-08T03:58:56.496Z,101846.66
2023-04-08T03:59:47.906Z,101841.47
2023-04-08T04:00:39.780Z,101844.13
2023-04-08T04:01:32.286Z,101840.50
2023-04-08T04:02:23.973Z,101844.06
2023-04-08T04:03:15.740Z,101838.88
2023-04-08T04:04:07.629Z,101843.09
2023-04-08T04:04:59.333Z,101840.41
2023-04-08T04:05:51.105Z,101845.75
2023-04-08T04:06:42.618Z,101844.78
2023-04-08T04:07:34.069Z,101845.59
2023-04-08T04:08:25.850Z,101854.31
2023-04-08T04:09:17.443Z,101844.78
2023-04-08T04:10:10.345Z,101851.72
2023-04-08T04:11:01.975Z,101842.34
2023-04-08T04:11:53.744Z,101844.22
2023-04-08T04:12:45.995Z,101843.31
2023-04-08T04:13:37.509Z,101847.59
2023-04-08T04:14:28.920Z,101853.59
2023-04-08T04:15:20.412Z,101851.97
2023-04-08T04:16:11.858Z,101845.09
2023-04-08T04:17:03.401Z,101846.84
2023-04-08T04:17:54.925Z,101851.31
2023-04-08T04:18:46.694Z,101851.38
2023-04-08T04:19:40.778Z,101855.84
2023-04-08T04:20:32.374Z,101848.06
2023-04-08T04:21:23.852Z,101847.97
2023-04-08T04:22:16.653Z,101848.06
2023-04-08T04:23:09.107Z,101854.94
2023-04-08T04:24:00.828Z,101853.91
2023-04-08T04:24:52.278Z,101857.31
2023-04-08T04:25:44.290Z,101853.75
2023-04-08T04:26:35.766Z,101852.78
2023-04-08T04:27:27.193Z,101857.16
2023-04-08T04:28:18.574Z,101857.16
2023-04-08T04:29:10.342Z,101854.47
2023-04-08T04:30:01.722Z,101863.97
2023-04-08T04:30:55.306Z,101863.97
2023-04-08T04:31:47.864Z,101855.28
2023-04-08T04:32:39.303Z,101863.88
2023-04-08T04:33:31.664Z,101869.00
2023-04-08T04:34:23.470Z,101866.31
2023-04-08T04:35:14.967Z,101857.41
2023-04-08T04:36:08.094Z,101863.31
2023-04-08T04:36:59.780Z,101859.75
2023-04-08T04:37:51.858Z,101863.88
2023-04-08T04:38:44.574Z,101857.66
2023-04-08T04:39:36.257Z,101860.06
2023-04-08T04:40:27.698Z,101859.03
2023-04-08T04:41:19.105Z,101867.53
2023-04-08T04:42:10.617Z,101869.16
2023-04-08T04:43:02.281Z,101864.69
2023-04-08T04:43:53.818Z,101868.00
2023-04-08T04:44:45.277Z,101866.06
2023-04-08T04:45:36.629Z,101866.88
2023-04-08T04:46:28.274Z,101865.91
2023-04-08T04:47:22.938Z,101865.91
2023-04-08T04:48:14.425Z,101868.72
2023-04-08T04:49:06.349Z,101872.22
2023-04-08T04:49:57.972Z,101876.81
2023-04-08T04:51:01.103Z,101872.69
2023-04-08T04:51:52.969Z,101878.13
2023-04-08T04:52:44.705Z,101868.75
2023-04-08T04:53:40.332Z,101869.78
2023-04-08T04:54:37.191Z,101873.28
2023-04-08T04:55:28.660Z,101871.56
2023-04-08T04:56:21.137Z,101869.88
2023-04-08T04:57:12.536Z,101871.56
2023-04-08T04:58:05.082Z,101873.28
2023-04-08T04:58:56.618Z,101865.25
2023-04-08T04:59:50.088Z,101866.97
2023-04-08T05:00:41.578Z,101866.97
2023-04-08T05:01:33.063Z,101876.53
2023-04-08T05:02:24.743Z,101866.31
2023-04-08T05:03:16.523Z,101867.28
2023-04-08T05:04:10.685Z,101869.78
2023-04-08T05:05:02.374Z,101870.75
2023-04-08T05:05:54.600Z,101871.72
2023-04-08T05:06:46.080Z,101873.50
2023-04-08T05:07:38.810Z,101874.47
2023-04-08T05:08:30.438Z,101872.84
2023-04-08T05:09:21.869Z,101874.63
2023-04-08T05:10:13.455Z,101880.63
2023-04-08T05:11:12.767Z,101875.59
2023-04-08T05:12:04.679Z,101877.38
2023-04-08T05:12:56.168Z,101881.84
2023-04-08T05:13:47.882Z,101882.97
2023-04-08T05:14:41.367Z,101876.00
2023-04-08T05:15:32.755Z,101882.00
2023-04-08T05:16:24.219Z,101878.75
2023-04-08T05:17:15.765Z,101877.94
2023-04-08T05:18:07.505Z,101880.47
2023-04-08T05:18:59.381Z,101881.19
2023-04-08T05:19:53.146Z,101883.63
2023-04-08T05:20:44.671Z,101879.25
2023-04-08T05:21:36.386Z,101883.63
2023-04-08T05:22:27.864Z,101886.31
2023-04-08T05:23:19.274Z,101884.75
2023-04-08T05:24:10.888Z,101889.38
2023-04-08T05:25:02.610Z,101887.91
2023-04-08T05:25:54.437Z,101883.84
2023-04-08T05:26:46.376Z,101893.31
2023-04-08T05:27:38.391Z,101886.53
2023-04-08T05:28:29.784Z,101886.28
2023-04-08T05:29:22.005Z,101888.13
2023-04-08T05:30:13.637Z,101887.56
2023-04-08T05:31:05.202Z,101885.88
2023-04-08T05:31:59.218Z,101890.91
2023-04-08T05:32:51.067Z,101890.16
2023-04-08T05:33:42.659Z,101888.69
2023-04-08T05:34:34.166Z,101889.75
2023-04-08T05:35:25.578Z,101889.16
2023-04-08T05:36:17.333Z,101895.91
2023-04-08T05:37:08.829Z,101903.69
2023-04-08T05:38:03.202Z,101898.81
2023-04-08T05:38:54.840Z,101905.75
2023-04-08T05:39:49.223Z,101899.69
2023-04-08T05:40:40.809Z,101895.41
2023-04-08T05:41:33.294Z,101909.47
2023-04-08T05:42:24.804Z,101904.38
2023-04-08T05:43:16.282Z,101906.97
2023-04-08T05:44:07.764Z,101906.72
2023-04-08T05:44:59.296Z,101911.19
2023-04-08T05:45:51.424Z,101914.59
2023-04-08T05:46:43.005Z,101917.19
2023-04-08T05:47:37.512Z,101913.69
2023-04-08T05:48:31.332Z,101915.41
2023-04-08T05:49:23.979Z,101911.91
2023-04-08T05:50:15.753Z,101906.88
2023-04-08T05:51:08.739Z,101915.78
2023-04-08T05:52:00.586Z,101914.47
2023-04-08T05:52:54.818Z,101920.72
2023-04-08T05:53:49.044Z,101916.09
2023-04-08T05:54:43.805Z,101917.16
2023-04-08T05:55:35.663Z,101921.38
2023-04-08T05:56:27.189Z,101925.66
2023-04-08T05:57:18.679Z,101920.56
2023-04-08T05:58:10.121Z,101924.03
2023-04-08T05:59:01.590Z,101917.00
2023-04-08T05:59:53.344Z,101920.72
2023-04-08T06:00:45.100Z,101927.81
2023-04-08T06:01:36.650Z,101927.16
2023-04-08T06:02:28.321Z,101927.25
2023-04-08T06:03:21.244Z,101925.63
2023-04-08T06:04:14.305Z,101930.97
2023-04-08T06:05:06.550Z,101932.75
2023-04-08T06:05:58.274Z,101928.22
2023-04-08T06:06:49.732Z,101932.50
2023-04-08T06:07:42.674Z,101929.03
2023-04-08T06:08:34.110Z,101930.97
2023-04-08T06:09:26.030Z,101929.75
2023-04-08T06:10:20.626Z,101927.97
2023-04-08T06:11:12.761Z,101932.28
2023-04-08T06:12:04.611Z,101936.97
2023-04-08T06:12:56.265Z,101926.94
2023-04-08T06:13:50.580Z,101934.41
2023-04-08T06:14:42.081Z,101930.91
2023-04-08T06:15:35.869Z,101932.63
2023-04-08T06:16:27.754Z,101939.75
2023-04-08T06:17:19.147Z,101942.38
2023-04-08T06:18:10.872Z,101945.34
2023-04-08T06:19:02.352Z,101939.91
2023-04-08T06:19:55.323Z,101941.13
2023-04-08T06:20:46.901Z,101942.25
2023-04-08T06:21:38.494Z,101941.81
2023-04-08T06:22:30.347Z,101946.38
2023-04-08T06:23:21.738Z,101949.22
2023-04-08T06:24:13.258Z,101946.09
2023-04-08T06:25:05.272Z,101945.75
2023-04-08T06:25:56.766Z,101941.84
2023-04-08T06:26:48.179Z,101941.94
2023-04-08T06:27:39.595Z,101942.03
2023-04-08T06:28:32.095Z,101943.81
2023-04-08T06:29:24.814Z,101947.38
2023-04-08T06:30:16.789Z,101948.41
2023-04-08T06:31:08.445Z,101946.84
2023-04-08T06:32:00.001Z,101936.63
2023-04-08T06:32:51.600Z,101947.06
2023-04-08T06:33:43.059Z,101946.47
2023-04-08T06:34:34.521Z,101948.78
2023-04-08T06:35:28.533Z,101947.22
2023-04-08T06:36:20.419Z,101942.41
2023-04-08T06:37:12.056Z,101942.66
2023-04-08T06:38:04.029Z,101943.63
2023-04-08T06:38:55.788Z,101934.34
2023-04-08T06:39:47.550Z,101942.44
2023-04-08T06:40:40.301Z,101947.69
2023-04-08T06:41:31.724Z,101942.56
2023-04-08T06:42:29.270Z,101950.28
2023-04-08T06:43:37.957Z,101950.75
2023-04-08T06:44:29.604Z,101946.66
2023-04-08T06:45:21.371Z,101952.03
2023-04-08T06:46:12.955Z,101949.66
2023-04-08T06:47:04.472Z,101945.44
2023-04-08T06:47:57.689Z,101955.16
2023-04-08T06:48:50.809Z,101949.75
2023-04-08T06:49:42.598Z,101950.63
2023-04-08T06:50:34.138Z,101953.13
2023-04-08T06:51:25.973Z,101954.59
2023-04-08T06:52:18.930Z,101951.44
2023-04-08T06:53:10.558Z,101956.94
2023-04-08T06:54:02.238Z,101957.06
2023-04-08T06:54:53.855Z,101956.34
2023-04-08T06:55:46.481Z,101957.47
2023-04-08T06:56:37.989Z,101952.78
2023-04-08T06:57:29.493Z,101960.66
2023-04-08T06:58:21.335Z,101955.34
2023-04-08T06:59:13.114Z,101958.94
2023-04-08T07:00:05.333Z,101961.75
2023-04-08T07:00:57.231Z,101959.03
2023-04-08T07:01:48.732Z,101961.63
2023-04-08T07:02:40.347Z,101960.44
2023-04-08T07:03:32.132Z,101970.84
2023-04-08T07:04:23.922Z,101964.97
2023-04-08T07:05:16.598Z,101965.59
2023-04-08T07:06:10.475Z,101967.50
2023-04-08T07:07:02.428Z,101968.66
2023-04-08T07:07:54.004Z,101963.69
2023-04-08T07:08:45.741Z,101965.72
2023-04-08T07:09:37.099Z,101962.38
2023-04-08T07:10:28.960Z,101963.94
2023-04-08T07:11:21.427Z,101967.66
2023-04-08T07:12:13.025Z,101961.88
2023-04-08T07:13:04.637Z,101966.53
2023-04-08T07:13:56.232Z,101972.38
2023-04-08T07:14:47.829Z,101968.72
2023-04-08T07:15:39.472Z,101973.19
2023-04-08T07:16:30.931Z,101969.63
2023-04-08T07:17:22.590Z,101965.88
2023-04-08T07:18:14.113Z,101971.34
2023-04-08T07:19:05.617Z,101968.59
2023-04-08T07:19:57.867Z,101968.88
2023-04-08T07:20:53.962Z,101969.34
2023-04-08T07:21:45.864Z,101965.59
2023-04-08T07:22:40.373Z,101966.88
2023-04-08T07:23:31.756Z,101966.84
2023-04-08T07:24:23.689Z,101964.63
2023-04-08T07:25:15.991Z,101972.34
2023-04-08T07:26:07.827Z,101983.84
2023-04-08T07:26:59.520Z,101978.63
2023-04-08T07:27:52.686Z,101980.63
2023-04-08T07:28:46.220Z,101966.13
2023-04-08T07:29:37.855Z,101977.16
2023-04-08T07:30:29.314Z,101982.75
2023-04-08T07:31:21.022Z,101974.91
2023-04-08T07:32:12.710Z,101973.94
2023-04-08T07:33:04.410Z,101983.50
2023-04-08T07:33:56.422Z,101981.06
2023-04-08T07:34:48.340Z,101978.94
2023-04-08T07:35:42.370Z,101987.84
2023-04-08T07:36:34.005Z,101987.41
2023-04-08T07:37:25.905Z,101981.78
2023-04-08T07:38:17.330Z,101988.66
2023-04-08T07:39:08.915Z,101989.06
2023-04-08T07:40:00.437Z,101986.47
2023-04-08T07:40:52.039Z,101987.56
2023-04-08T07:41:43.419Z,101982.75
2023-04-08T07:42:34.900Z,101986.44
2023-04-08T07:43:26.706Z,101990.78
2023-04-08T07:44:19.883Z,101986.94
2023-04-08T07:45:12.011Z,101988.88
2023-04-08T07:46:06.754Z,101989.81
2023-04-08T07:46:58.330Z,101995.56
2023-04-08T07:47:49.837Z,101992.41
2023-04-08T07:48:41.409Z,101996.66
2023-04-08T07:49:33.086Z,101992.28
2023-04-08T07:50:24.594Z,101989.53
2023-04-08T07:51:16.175Z,102001.66
2023-04-08T07:52:12.229Z,101992.13
2023-04-08T07:53:03.960Z,101998.09
2023-04-08T07:53:55.782Z,101998.91
2023-04-08T07:54:47.218Z,101998.00
2023-04-08T07:55:40.280Z,102006.41
2023-04-08T07:56:31.969Z,102003.91
2023-04-08T07:57:23.532Z,101999.44
2023-04-08T07:58:15.114Z,102006.81
2023-04-08T07:59:07.156Z,102013.59
2023-04-08T07:59:58.833Z,102003.75
2023-04-08T08:00:50.426Z,102009.69
2023-04-08T08:01:42.277Z,102016.41
2023-04-08T08:02:34.386Z,102018.00
2023-04-08T08:03:26.609Z,102019.84
2023-04-08T08:04:18.572Z,102023.34
2023-04-08T08:05:10.397Z,102018.19
2023-04-08T08:06:02.033Z,102023.72
2023-04-08T08:06:53.639Z,102019.94
2023-04-08T08:07:45.455Z,102034.09
2023-04-08T08:08:36.969Z,102022.00
2023-04-08T08:09:29.248Z,102018.94
2023-04-08T08:10:21.777Z,102024.13
2023-04-08T08:11:13.333Z,102025.91
2023-04-08T08:12:04.851Z,102030.22
2023-04-08T08:12:56.241Z,102027.22
2023-04-08T08:13:48.009Z,102026.69
2023-04-08T08:14:39.733Z,102028.66
2023-04-08T08:15:31.601Z,102033.69
2023-04-08T08:16:23.138Z,102029.16
2023-04-08T08:17:14.872Z,102028.13
2023-04-08T08:18:06.410Z,102038.97
2023-04-08T08:18:58.414Z,102036.38
2023-04-08T08:19:50.099Z,102038.59
2023-04-08T08:20:41.720Z,102032.09
2023-04-08T08:21:35.538Z,102037.09
2023-04-08T08:22:27.598Z,102035.38
2023-04-08T08:23:19.101Z,102036.13
2023-04-08T08:24:10.731Z,102039.75
2023-04-08T08:25:02.445Z,102035.81
2023-04-08T08:26:10.672Z,102040.84
2023-04-08T08:27:04.364Z,102036.72
2023-04-08T08:27:57.925Z,102035.00
2023-04-08T08:28:51.781Z,102042.06
2023-04-08T08:29:43.157Z,102037.47
2023-04-08T08:30:34.968Z,102041.84
2023-04-08T08:31:26.758Z,102042.59
2023-04-08T08:32:18.964Z,102044.16
2023-04-08T08:33:10.625Z,102044.94
2023-04-08T08:34:02.575Z,102047.28
2023-04-08T08:34:54.073Z,102043.06
2023-04-08T08:35:45.571Z,102051.13
2023-04-08T08:36:36.983Z,102049.44
2023-04-08T08:37:31.462Z,102044.94
2023-04-08T08:38:23.092Z,102046.16
2023-04-08T08:39:14.608Z,102050.78
2023-04-08T08:40:06.600Z,102042.50
2023-04-08T08:41:04.423Z,102046.88
2023-04-08T08:41:58.484Z,102038.25
2023-04-08T08:42:52.400Z,102044.25
2023-04-08T08:43:45.010Z,102047.78
2023-04-08T08:44:36.635Z,102048.50
2023-04-08T08:45:28.306Z,102056.25
2023-04-08T08:46:19.789Z,102052.47
2023-04-08T08:47:14.278Z,102053.38
2023-04-08T08:48:08.753Z,102054.38
2023-04-08T08:49:06.017Z,102046.88
2023-04-08T08:50:01.243Z,102052.06
2023-04-08T08:50:55.089Z,102052.16
2023-04-08T08:51:49.269Z,102050.66
2023-04-08T08:52:52.271Z,102048.25
2023-04-08T08:53:45.293Z,102048.03
2023-04-08T08:54:37.990Z,102049.41
2023-04-08T08:55:53.173Z,102044.56
2023-04-08T08:56:45.248Z,102049.84
2023-04-08T08:57:37.196Z,102049.28
2023-04-08T08:58:28.712Z,102044.81
2023-04-08T08:59:20.549Z,102047.41
2023-04-08T09:00:16.319Z,102052.50
2023-04-08T09:01:34.669Z,102051.94
2023-04-08T09:02:32.225Z,102049.97
2023-04-08T09:03:29.103Z,102048.03
2023-04-08T09:04:22.805Z,102052.25
2023-04-08T09:05:14.570Z,102053.09
2023-04-08T09:06:06.200Z,102051.19
2023-04-08T09:07:13.644Z,102049.88
2023-04-08T09:08:07.722Z,102053.03
2023-04-08T09:08:59.193Z,102050.81
2023-04-08T09:09:52.880Z,102056.41
2023-04-08T09:10:44.377Z,102048.91
2023-04-08T09:11:43.978Z,102050.84
2023-04-08T09:12:35.580Z,102052.44
2023-04-08T09:13:38.999Z,102050.38
2023-04-08T09:14:32.898Z,102054.00
2023-04-08T09:15:26.556Z,102046.13
2023-04-08T09:16:20.348Z,102054.19
2023-04-08T09:17:12.339Z,102062.09
2023-04-08T09:18:22.425Z,102062.44
2023-04-08T09:19:14.004Z,102062.44
2023-04-08T09:20:12.079Z,102057.06
2023-04-08T09:21:05.423Z,102066.66
2023-04-08T09:22:07.384Z,102060.66
2023-04-08T09:23:02.564Z,102057.25
2023-04-08T09:23:54.196Z,102063.53
2023-04-08T09:24:45.937Z,102066.88
2023-04-08T09:25:38.507Z,102065.03
2023-04-08T09:26:30.316Z,102058.94
2023-04-08T09:27:35.602Z,102060.03
2023-04-08T09:28:27.534Z,102055.34
2023-04-08T09:29:26.317Z,102059.72
2023-04-08T09:30:19.270Z,102058.25
2023-04-08T09:31:29.039Z,102060.59
2023-04-08T09:32:20.778Z,102070.13
2023-04-08T09:33:12.624Z,102064.41
2023-04-08T09:34:11.891Z,102065.69
2023-04-08T09:35:04.796Z,102064.41
2023-04-08T09:35:58.317Z,102062.75
2023-04-08T09:36:50.823Z,102066.75
2023-04-08T09:37:42.278Z,102061.50
2023-04-08T09:38:36.294Z,102068.03
2023-04-08T09:39:27.728Z,102066.50
2023-04-08T09:40:19.405Z,102076.84
2023-04-08T09:41:16.213Z,102067.34
2023-04-08T09:42:12.072Z,102066.19
2023-04-08T09:43:09.199Z,102070.41
2023-04-08T09:44:07.702Z,102074.56
2023-04-08T09:45:04.299Z,102068.31
2023-04-08T09:46:00.960Z,102072.22
2023-04-08T09:47:09.985Z,102072.56
2023-04-08T09:48:13.835Z,102062.34
2023-04-08T09:49:13.918Z,102066.41
2023-04-08T09:50:09.288Z,102069.13
2023-04-08T09:51:01.236Z,102065.22
2023-04-08T09:52:14.118Z,102064.19
2023-04-08T09:53:15.563Z,102070.13
2023-04-08T09:54:14.940Z,102069.09
2023-04-08T09:55:09.705Z,102067.97
2023-04-08T09:56:06.709Z,102070.81
2023-04-08T09:57:09.949Z,102073.56
2023-04-08T09:58:08.714Z,102068.66
2023-04-08T09:59:09.399Z,102067.22
2023-04-08T10:00:09.719Z,102067.88
2023-04-08T10:01:09.982Z,102060.00
2023-04-08T10:02:09.576Z,102068.72
2023-04-08T10:03:38.602Z,102062.38
2023-04-08T10:04:38.517Z,102071.94
2023-04-08T10:05:36.559Z,102074.31
2023-04-08T10:06:31.342Z,102060.00
2023-04-08T10:07:23.150Z,102057.97
2023-04-08T10:08:16.333Z,102059.53
2023-04-08T10:09:10.455Z,102050.41
2023-04-08T10:10:03.168Z,102059.06
2023-04-08T10:10:56.279Z,102062.28